Du har inga inställningar för hoppväder.nu

Hoppväder.nu

Senast uppdaterat 13:24

UTC-tid

2021-12-07 kl. 12:24


Sol och måne

Solen går upp 8:55 och går ner 14:34 (beräknade cirkatider)
Nästa fullmåne blir om 12 dagar (2021-12-19)


Väderstation: Skydive Mohed

Väderrapport från: 2021/11/20 kl 22:24:56
Vindriktning: 133°
Vinden har varierat mellan 337° och 135° de senaste 10 minuterna.
Vindstyrka: 0,8 m/s
Byvind: 12,2 m/s
Lufttryck: 1014,9 hPa
Temperatur: 3,4°C, känns som: 0,4°C
Daggpunkt: -3,6°C
Luftfuktighet: 60%
Molnbas: 2879 m




METAR

ESSD (Borlänge)
(34 minuter sedan)
ESSD 071150Z 23002KT 9999 SCT120 M16/M18 Q1017=



ESNN (Sundsvall-Härnösand)
(34 minuter sedan)
ESNN 071150Z 30004KT 260V330 1700 -SN VV027 M07/M09 Q1018=












TAF

ESSD (Borlänge)
(54 minuter sedan)
ESSD 071130Z 0712/0717 VRB02KT CAVOK=



ESNN (Sundsvall-Härnösand)
(414 minuter sedan)
ESNN 070530Z 0706/0710 31006KT 6000 -SN SCT008 BKN030 PROB40 0706/0710 1200 SN VV008=





Kodnycklar till TAF och METAR






LHP

(Mohed är område se42e i Delområde 4)







Spotting

Hur fungerar spotthjälpen och Vindkartan?

Markvind är ca 0 m/s.



Vindkartan

Senast uppdaterad 13:24


All data kommer från LFV.se,
och från SÖFKs väderstation